KCEC/CEC METAR and TAF weather

Enter ICAO airport designator
Station Type Date Time Source
KCEC METAR 2018/01/19 17:19 UTC NOAA

KCEC 191719Z AUTO 07005KT 3SM RA BR BKN023 BKN029 OVC036 08/06 A3010 RMK AO2 P0006 T00780056


Station Type Date Time Source
KCEC Decoded METAR 2018/01/19 17:19 UTC NOAA

CRESCENT CITY MC NAMARA, CA, United States (KCEC) 41-47N 124-14W
Jan 19, 2018 - 12:19 PM EST / 2018.01.19 1719 UTC
Wind: from the ENE (070 degrees) at 6 MPH (5 KT):0
Visibility: 3 mile(s):0
Sky conditions: overcast
Weather: rain; mist
Precipitation last hour: 0.06 inches
Temperature: 46.0 F (7.8 C)
Dew Point: 42.1 F (5.6 C)
Relative Humidity: 85%
Pressure (altimeter): 30.1 in. Hg (1019 hPa)
ob: KCEC 191719Z AUTO 07005KT 3SM RA BR BKN023 BKN029 OVC036 08/06 A3010 RMK AO2 P0006 T00780056
cycle: 17

Station Type Date Time Source
KCEC TAF 2018/01/19 18:33 UTC NOAA

TAF KCEC 191731Z 1918/2018 VRB05KT 3SM -SHRAGS SCT015 BKN025 OVC035
FM191900 18009KT 6SM -SHRAGS SCT025 BKN050 OVC100
TEMPO 1920/1924 5SM -SHRAGS BKN025 OVC035
FM200000 17008KT 6SM -SHRA SCT025 BKN050 OVC100
FM200900 12003KT P6SM VCSH BKN030 OVC050


Example: see airport list